Terminal Aerodrome Forecast
Issued by NWS

Home | Current Version | Previous Version | Text Only | Print | Product List | Glossary On
Versions: 1 2 3 4 5 6 7 8 9 10 11 12 13 14 15 16 17 18 19 20 21
736
FTUS44 KOUN 252320
TAFLAW
TAF
KLAW 252320Z 2600/2624 09010KT P6SM SCT070 BKN150
     FM260300 11008KT P6SM BKN050 OVC120 PROB30 2609/2615 3SM TSRA
      OVC040CB
     FM261600 11006KT P6SM BKN060 BKN100=

USA.gov is the U.S. government's official web portal to all federal, state and local government web resources and services.